Seth D. Settoon — WDH6866 — position and weather

sailwx.info

Track history (hours):
 
Tides and Currents Weather Stations Pressure Air Temp Water Temp Dewpoint Dewpoint Depression Visibility Wind Speed Wind Dir Waves Ship Positions

Seth D. Settoon

Owner: Settoon Towing, L.L.C., Houma, LA. More information available from US FCC via Universal Licensing System and Coast Guard Vessel Documentation Center.

Last reported at 2017-Sep-19 13:23 UTC. Time now 2017-Sep-23 04:13 UTC.
Position N 29°50' W 091°60'.

Type: Other ship. MMSI: 367642410.

Date/timePositionNaut miles runAvg speedWind from/ knotsBaromVisibWave heightAir tempDewpointWater temp
2017-Sep-19 13:23N 29°50' W 091°60'2 6.3
2017-Sep-19 13:00N 29°49' W 092°02'3 6.7
2017-Sep-19 12:30N 29°48' W 092°06'3 6.6
2017-Sep-19 12:00N 29°47' W 092°09'3 6.0
2017-Sep-19 11:30N 29°47' W 092°13'4 6.7
2017-Sep-19 10:56N 29°49' W 092°17'3 5.8
2017-Sep-19 10:30N 29°50' W 092°19'38 6.0
2017-Sep-19 04:08N 29°56' W 093°03'1 6.1
2017-Sep-19 03:59N 29°56' W 093°04'3 6.1
2017-Sep-19 03:30N 29°56' W 093°07'3 5.6
2017-Sep-19 03:00N 29°57' W 093°10'3 6.2
2017-Sep-19 02:30N 29°59' W 093°13'3 5.9
2017-Sep-19 02:00N 30°02' W 093°15'3 5.8
2017-Sep-19 01:30N 30°04' W 093°16'2 4.5
2017-Sep-19 01:00N 30°06' W 093°18'2 4.2
2017-Sep-19 00:30N 30°08' W 093°20'1 1.4
2017-Sep-19 00:00N 30°08' W 093°19'0 0.0
2017-Sep-18 23:30N 30°08' W 093°19'0 0.0
2017-Sep-18 23:00N 30°08' W 093°19'0 0.0
2017-Sep-18 22:30N 30°08' W 093°19'0 0.0
2017-Sep-18 22:00N 30°08' W 093°19'0 0.0
2017-Sep-18 21:30N 30°08' W 093°19'0 0.0
2017-Sep-18 21:00N 30°08' W 093°19'0 0.0
2017-Sep-18 20:30N 30°08' W 093°19'0 0.0
2017-Sep-18 20:00N 30°08' W 093°19'0 0.0
2017-Sep-18 19:30N 30°08' W 093°19'0 0.1
2017-Sep-18 19:00N 30°08' W 093°19'0 0.0
2017-Sep-18 18:30N 30°08' W 093°19'0 0.0
2017-Sep-18 18:00N 30°08' W 093°19'0 0.0
2017-Sep-18 17:30N 30°08' W 093°19'0 0.0
2017-Sep-18 17:00N 30°08' W 093°19'0 0.0
2017-Sep-18 16:30N 30°08' W 093°19'0 0.0
2017-Sep-18 16:00N 30°08' W 093°19'0 0.0
2017-Sep-18 15:30N 30°08' W 093°19'0 0.0
2017-Sep-18 15:00N 30°08' W 093°19'0 0.0
2017-Sep-18 14:30N 30°08' W 093°19'0 0.0
2017-Sep-18 14:00N 30°08' W 093°19'1 2.0
2017-Sep-18 13:30N 30°07' W 093°20'2 3.7
2017-Sep-18 13:00N 30°06' W 093°18'1 2.4
2017-Sep-18 12:30N 30°05' W 093°17'2 3.1
2017-Sep-18 12:00N 30°04' W 093°16'2 4.3
2017-Sep-18 11:30N 30°02' W 093°15'3 5.1
2017-Sep-18 11:00N 30°00' W 093°13'3 6.0
2017-Sep-18 10:30N 29°58' W 093°11'3 5.5
2017-Sep-18 10:00N 29°56' W 093°09'3 5.8
2017-Sep-18 09:30N 29°56' W 093°05'40 5.3
2017-Sep-18 01:51N 29°50' W 092°19'2 4.9
2017-Sep-18 01:29N 29°49' W 092°17'2 5.1
2017-Sep-18 01:00N 29°48' W 092°15'3 5.2
2017-Sep-18 00:30N 29°47' W 092°12'3 5.3
2017-Sep-18 00:00N 29°47' W 092°09'3 5.6
2017-Sep-17 23:30N 29°48' W 092°06'6 0.3
2017-Sep-17 03:39N 29°50' W 091°60'1 7.2
2017-Sep-17 03:30N 29°49' W 092°01'3 6.9
2017-Sep-17 03:00N 29°48' W 092°04'3 6.6
2017-Sep-17 02:30N 29°47' W 092°08'3 5.3
2017-Sep-17 02:00N 29°47' W 092°11'0 0.0
2017-Sep-17 01:30N 29°47' W 092°11'0 0.9
2017-Sep-17 01:00N 29°47' W 092°11'4 7.1
2017-Sep-17 00:30N 29°48' W 092°15'4 5.5
2017-Sep-16 23:47N 29°50' W 092°19'39 6.1
2017-Sep-16 17:25N 29°56' W 093°04'2 6.0
2017-Sep-16 17:00N 29°56' W 093°07'3 5.9
2017-Sep-16 16:30N 29°57' W 093°10'3 6.3
2017-Sep-16 16:00N 29°59' W 093°12'3 5.7
2017-Sep-16 15:30N 30°01' W 093°14'3 5.6
2017-Sep-16 15:00N 30°04' W 093°16'1 1.1
2017-Sep-16 14:30N 30°04' W 093°16'0 0.0
2017-Sep-16 14:00N 30°04' W 093°16'0 0.0
2017-Sep-16 13:30N 30°04' W 093°16'0 0.0
2017-Sep-16 13:00N 30°04' W 093°16'0 0.0
2017-Sep-16 12:30N 30°04' W 093°16'0 0.0
2017-Sep-16 12:00N 30°04' W 093°16'0 0.3
2017-Sep-16 11:30N 30°04' W 093°16'2 3.7
2017-Sep-16 11:00N 30°05' W 093°18'2 4.7
2017-Sep-16 10:30N 30°07' W 093°20'1 2.8
2017-Sep-16 10:00N 30°08' W 093°19'0 0.0
2017-Sep-16 09:30N 30°08' W 093°19'0 0.0
2017-Sep-16 09:00N 30°08' W 093°19'0 0.0
2017-Sep-16 08:30N 30°08' W 093°19'0 0.0
2017-Sep-16 08:00N 30°08' W 093°19'0 0.0
2017-Sep-16 07:30N 30°08' W 093°19'0 0.0
2017-Sep-16 07:00N 30°08' W 093°19'0 0.0
2017-Sep-16 06:30N 30°08' W 093°19'0 0.0
2017-Sep-16 06:00N 30°08' W 093°19'0 0.0
2017-Sep-16 05:30N 30°08' W 093°19'0 0.0
2017-Sep-16 05:00N 30°08' W 093°19'0 0.1
2017-Sep-16 04:30N 30°08' W 093°19'0 0.0
2017-Sep-16 04:00N 30°08' W 093°19'0 0.0
2017-Sep-16 03:30N 30°08' W 093°19'0 0.0
2017-Sep-16 03:00N 30°08' W 093°19'0 0.0
2017-Sep-16 02:30N 30°08' W 093°19'0 0.0
2017-Sep-16 02:00N 30°08' W 093°19'0 0.0
2017-Sep-16 01:28N 30°08' W 093°19'0 0.0
2017-Sep-16 01:00N 30°08' W 093°19'0 0.0
2017-Sep-16 00:30N 30°08' W 093°19'0 0.0
2017-Sep-16 00:00N 30°08' W 093°19'0 0.0
2017-Sep-15 23:30N 30°08' W 093°19'0 0.0
2017-Sep-15 23:00N 30°08' W 093°19'0 0.0
2017-Sep-15 22:30N 30°08' W 093°19'0 0.0
2017-Sep-15 22:00N 30°08' W 093°19'0 0.0
2017-Sep-15 21:30N 30°08' W 093°19'0 0.8
2017-Sep-15 21:00N 30°08' W 093°20'0 0.4
2017-Sep-15 20:30N 30°08' W 093°20'2 3.6
2017-Sep-15 20:00N 30°06' W 093°20'2 4.1
2017-Sep-15 19:30N 30°05' W 093°18'3 5.3
2017-Sep-15 19:00N 30°03' W 093°16'2 4.4
2017-Sep-15 18:30N 30°02' W 093°14'3 5.2
2017-Sep-15 18:00N 29°59' W 093°13'3 5.5
2017-Sep-15 17:30N 29°57' W 093°11'2 5.0
2017-Sep-15 17:00N 29°56' W 093°08'3 5.6
2017-Sep-15 16:30N 29°56' W 093°05'57 1.2
2017-Sep-13 16:28N 29°50' W 091°59'3 6.8
2017-Sep-13 16:00N 29°49' W 092°03'3 6.8
2017-Sep-13 15:30N 29°48' W 092°07'3 6.6
2017-Sep-13 15:00N 29°47' W 092°10'3 6.8
2017-Sep-13 14:30N 29°48' W 092°14'4 7.2
2017-Sep-13 14:00N 29°49' W 092°18'39 6.3
2017-Sep-13 07:52N 29°56' W 093°01'2 5.9
2017-Sep-13 07:30N 29°56' W 093°04'3 5.8
2017-Sep-13 07:00N 29°56' W 093°07'3 5.3
2017-Sep-13 06:30N 29°57' W 093°10'2 4.8
2017-Sep-13 06:00N 29°59' W 093°12'2 4.9
2017-Sep-13 05:30N 30°00' W 093°14'1 3.0
2017-Sep-13 05:00N 30°02' W 093°14'2 3.1
2017-Sep-13 04:30N 30°03' W 093°16'3 5.3
2017-Sep-13 04:00N 30°05' W 093°17'2 4.6
2017-Sep-13 03:30N 30°06' W 093°20'2 4.1
2017-Sep-13 03:00N 30°08' W 093°19'0 0.0
2017-Sep-13 02:30N 30°08' W 093°19'0 0.0
2017-Sep-13 02:00N 30°08' W 093°19'0 0.0
2017-Sep-13 01:30N 30°08' W 093°19'0 0.0
2017-Sep-13 01:00N 30°08' W 093°19'0 0.0
2017-Sep-13 00:30N 30°08' W 093°19'0 0.0
2017-Sep-13 00:00N 30°08' W 093°19'0 0.0
2017-Sep-12 23:30N 30°08' W 093°19'0 0.0
2017-Sep-12 23:00N 30°08' W 093°19'0 0.0
2017-Sep-12 22:30N 30°08' W 093°19'0 0.1
2017-Sep-12 22:00N 30°08' W 093°19'0 0.0
2017-Sep-12 21:30N 30°08' W 093°19'0 0.0
2017-Sep-12 21:00N 30°08' W 093°19'0 0.0
2017-Sep-12 20:30N 30°08' W 093°19'0 0.0
2017-Sep-12 20:00N 30°08' W 093°19'0 0.0
2017-Sep-12 19:30N 30°08' W 093°19'0 0.0
2017-Sep-12 19:00N 30°08' W 093°19'0 0.0
2017-Sep-12 18:30N 30°08' W 093°19'0 0.0
2017-Sep-12 18:00N 30°08' W 093°19'0 0.0
2017-Sep-12 17:30N 30°08' W 093°19'0 0.0
2017-Sep-12 17:00N 30°08' W 093°19'0 0.0
2017-Sep-12 16:30N 30°08' W 093°19'1 1.4
2017-Sep-12 16:00N 30°07' W 093°20'2 3.6
2017-Sep-12 15:30N 30°06' W 093°19'2 4.7
2017-Sep-12 15:00N 30°05' W 093°17'3 5.6
2017-Sep-12 14:30N 30°02' W 093°15'49 5.0
2017-Sep-12 04:42N 29°51' W 092°20'2 4.9
2017-Sep-12 04:22N 29°50' W 092°18'2 4.9
2017-Sep-12 04:00N 29°49' W 092°17'2 4.9
2017-Sep-12 03:30N 29°48' W 092°14'2 4.4
2017-Sep-12 03:00N 29°47' W 092°12'2 4.8
2017-Sep-12 02:30N 29°47' W 092°09'2 4.8
2017-Sep-12 02:00N 29°48' W 092°07'3 5.1
2017-Sep-12 01:30N 29°48' W 092°04'4 0.1
2017-Sep-10 08:45N 29°50' W 091°60'2 7.0
2017-Sep-10 08:26N 29°49' W 092°02'3 6.7
2017-Sep-10 07:59N 29°48' W 092°05'3 6.6
2017-Sep-10 07:30N 29°47' W 092°09'2 3.6
2017-Sep-10 07:00N 29°47' W 092°11'0 0.1
2017-Sep-10 06:30N 29°47' W 092°11'1 1.4
2017-Sep-10 06:00N 29°47' W 092°12'3 6.6
2017-Sep-10 05:29N 29°48' W 092°15'42 6.6
2017-Sep-09 23:06N 29°56' W 093°03'1 6.0
2017-Sep-09 22:57N 29°56' W 093°04'3 6.2
2017-Sep-09 22:30N 29°56' W 093°07'3 5.6
2017-Sep-09 22:00N 29°57' W 093°10'3 6.2
2017-Sep-09 21:30N 29°59' W 093°13'3 5.8
2017-Sep-09 21:00N 30°02' W 093°14'1 2.1
2017-Sep-09 20:30N 30°02' W 093°15'2 4.3
2017-Sep-09 20:00N 30°04' W 093°16'3 5.5
2017-Sep-09 19:30N 30°06' W 093°19'2 4.2
2017-Sep-09 19:00N 30°08' W 093°20'0 0.6
2017-Sep-09 18:30N 30°08' W 093°19'0 0.0
2017-Sep-09 18:00N 30°08' W 093°19'0 0.0
2017-Sep-09 17:30N 30°08' W 093°19'0 0.0
2017-Sep-09 17:00N 30°08' W 093°19'0 0.0
2017-Sep-09 16:30N 30°08' W 093°19'0 0.0
2017-Sep-09 16:00N 30°08' W 093°19'0 0.0
2017-Sep-09 15:30N 30°08' W 093°19'0 0.0
2017-Sep-09 15:00N 30°08' W 093°19'0 0.0
2017-Sep-09 14:29N 30°08' W 093°19'1 1.2
2017-Sep-09 13:58N 30°08' W 093°20'  
Track history (hours):
 
Tides and Currents Weather Stations Pressure Air Temp Water Temp Dewpoint Dewpoint Depression Visibility Wind Speed Wind Dir Waves Ship Positions

Seth D. Settoon

Owner: Settoon Towing, L.L.C., Houma, LA. More information available from US FCC via Universal Licensing System and Coast Guard Vessel Documentation Center.

Last reported at 2017-Sep-19 13:23 UTC. Time now 2017-Sep-23 04:13 UTC.
Position N 29°50' W 091°60'.

Type: Other ship. MMSI: 367642410.

Date/timePositionNaut miles runAvg speedWind from/ knotsBaromVisibWave heightAir tempDewpointWater temp
2017-Sep-19 13:23N 29°50' W 091°60'2 6.3
2017-Sep-19 13:00N 29°49' W 092°02'3 6.7
2017-Sep-19 12:30N 29°48' W 092°06'3 6.6
2017-Sep-19 12:00N 29°47' W 092°09'3 6.0
2017-Sep-19 11:30N 29°47' W 092°13'4 6.7
2017-Sep-19 10:56N 29°49' W 092°17'3 5.8
2017-Sep-19 10:30N 29°50' W 092°19'38 6.0
2017-Sep-19 04:08N 29°56' W 093°03'1 6.1
2017-Sep-19 03:59N 29°56' W 093°04'3 6.1
2017-Sep-19 03:30N 29°56' W 093°07'3 5.6
2017-Sep-19 03:00N 29°57' W 093°10'3 6.2
2017-Sep-19 02:30N 29°59' W 093°13'3 5.9
2017-Sep-19 02:00N 30°02' W 093°15'3 5.8
2017-Sep-19 01:30N 30°04' W 093°16'2 4.5
2017-Sep-19 01:00N 30°06' W 093°18'2 4.2
2017-Sep-19 00:30N 30°08' W 093°20'1 1.4
2017-Sep-19 00:00N 30°08' W 093°19'0 0.0
2017-Sep-18 23:30N 30°08' W 093°19'0 0.0
2017-Sep-18 23:00N 30°08' W 093°19'0 0.0
2017-Sep-18 22:30N 30°08' W 093°19'0 0.0
2017-Sep-18 22:00N 30°08' W 093°19'0 0.0
2017-Sep-18 21:30N 30°08' W 093°19'0 0.0
2017-Sep-18 21:00N 30°08' W 093°19'0 0.0
2017-Sep-18 20:30N 30°08' W 093°19'0 0.0
2017-Sep-18 20:00N 30°08' W 093°19'0 0.0
2017-Sep-18 19:30N 30°08' W 093°19'0 0.1
2017-Sep-18 19:00N 30°08' W 093°19'0 0.0
2017-Sep-18 18:30N 30°08' W 093°19'0 0.0
2017-Sep-18 18:00N 30°08' W 093°19'0 0.0
2017-Sep-18 17:30N 30°08' W 093°19'0 0.0
2017-Sep-18 17:00N 30°08' W 093°19'0 0.0
2017-Sep-18 16:30N 30°08' W 093°19'0 0.0
2017-Sep-18 16:00N 30°08' W 093°19'0 0.0
2017-Sep-18 15:30N 30°08' W 093°19'0 0.0
2017-Sep-18 15:00N 30°08' W 093°19'0 0.0
2017-Sep-18 14:30N 30°08' W 093°19'0 0.0
2017-Sep-18 14:00N 30°08' W 093°19'1 2.0
2017-Sep-18 13:30N 30°07' W 093°20'2 3.7
2017-Sep-18 13:00N 30°06' W 093°18'1 2.4
2017-Sep-18 12:30N 30°05' W 093°17'2 3.1
2017-Sep-18 12:00N 30°04' W 093°16'2 4.3
2017-Sep-18 11:30N 30°02' W 093°15'3 5.1
2017-Sep-18 11:00N 30°00' W 093°13'3 6.0
2017-Sep-18 10:30N 29°58' W 093°11'3 5.5
2017-Sep-18 10:00N 29°56' W 093°09'3 5.8
2017-Sep-18 09:30N 29°56' W 093°05'40 5.3
2017-Sep-18 01:51N 29°50' W 092°19'2 4.9
2017-Sep-18 01:29N 29°49' W 092°17'2 5.1
2017-Sep-18 01:00N 29°48' W 092°15'3 5.2
2017-Sep-18 00:30N 29°47' W 092°12'3 5.3
2017-Sep-18 00:00N 29°47' W 092°09'3 5.6
2017-Sep-17 23:30N 29°48' W 092°06'6 0.3
2017-Sep-17 03:39N 29°50' W 091°60'1 7.2
2017-Sep-17 03:30N 29°49' W 092°01'3 6.9
2017-Sep-17 03:00N 29°48' W 092°04'3 6.6
2017-Sep-17 02:30N 29°47' W 092°08'3 5.3
2017-Sep-17 02:00N 29°47' W 092°11'0 0.0
2017-Sep-17 01:30N 29°47' W 092°11'0 0.9
2017-Sep-17 01:00N 29°47' W 092°11'4 7.1
2017-Sep-17 00:30N 29°48' W 092°15'4 5.5
2017-Sep-16 23:47N 29°50' W 092°19'39 6.1
2017-Sep-16 17:25N 29°56' W 093°04'2 6.0
2017-Sep-16 17:00N 29°56' W 093°07'3 5.9
2017-Sep-16 16:30N 29°57' W 093°10'3 6.3
2017-Sep-16 16:00N 29°59' W 093°12'3 5.7
2017-Sep-16 15:30N 30°01' W 093°14'3 5.6
2017-Sep-16 15:00N 30°04' W 093°16'1 1.1
2017-Sep-16 14:30N 30°04' W 093°16'0 0.0
2017-Sep-16 14:00N 30°04' W 093°16'0 0.0
2017-Sep-16 13:30N 30°04' W 093°16'0 0.0
2017-Sep-16 13:00N 30°04' W 093°16'0 0.0
2017-Sep-16 12:30N 30°04' W 093°16'0 0.0
2017-Sep-16 12:00N 30°04' W 093°16'0 0.3
2017-Sep-16 11:30N 30°04' W 093°16'2 3.7
2017-Sep-16 11:00N 30°05' W 093°18'2 4.7
2017-Sep-16 10:30N 30°07' W 093°20'1 2.8
2017-Sep-16 10:00N 30°08' W 093°19'0 0.0
2017-Sep-16 09:30N 30°08' W 093°19'0 0.0
2017-Sep-16 09:00N 30°08' W 093°19'0 0.0
2017-Sep-16 08:30N 30°08' W 093°19'0 0.0
2017-Sep-16 08:00N 30°08' W 093°19'0 0.0
2017-Sep-16 07:30N 30°08' W 093°19'0 0.0
2017-Sep-16 07:00N 30°08' W 093°19'0 0.0
2017-Sep-16 06:30N 30°08' W 093°19'0 0.0
2017-Sep-16 06:00N 30°08' W 093°19'0 0.0
2017-Sep-16 05:30N 30°08' W 093°19'0 0.0
2017-Sep-16 05:00N 30°08' W 093°19'0 0.1
2017-Sep-16 04:30N 30°08' W 093°19'0 0.0
2017-Sep-16 04:00N 30°08' W 093°19'0 0.0
2017-Sep-16 03:30N 30°08' W 093°19'0 0.0
2017-Sep-16 03:00N 30°08' W 093°19'0 0.0
2017-Sep-16 02:30N 30°08' W 093°19'0 0.0
2017-Sep-16 02:00N 30°08' W 093°19'0 0.0
2017-Sep-16 01:28N 30°08' W 093°19'0 0.0
2017-Sep-16 01:00N 30°08' W 093°19'0 0.0
2017-Sep-16 00:30N 30°08' W 093°19'0 0.0
2017-Sep-16 00:00N 30°08' W 093°19'0 0.0
2017-Sep-15 23:30N 30°08' W 093°19'0 0.0
2017-Sep-15 23:00N 30°08' W 093°19'0 0.0
2017-Sep-15 22:30N 30°08' W 093°19'0 0.0
2017-Sep-15 22:00N 30°08' W 093°19'0 0.0
2017-Sep-15 21:30N 30°08' W 093°19'0 0.8
2017-Sep-15 21:00N 30°08' W 093°20'0 0.4
2017-Sep-15 20:30N 30°08' W 093°20'2 3.6
2017-Sep-15 20:00N 30°06' W 093°20'2 4.1
2017-Sep-15 19:30N 30°05' W 093°18'3 5.3
2017-Sep-15 19:00N 30°03' W 093°16'2 4.4
2017-Sep-15 18:30N 30°02' W 093°14'3 5.2
2017-Sep-15 18:00N 29°59' W 093°13'3 5.5
2017-Sep-15 17:30N 29°57' W 093°11'2 5.0
2017-Sep-15 17:00N 29°56' W 093°08'3 5.6
2017-Sep-15 16:30N 29°56' W 093°05'57 1.2
2017-Sep-13 16:28N 29°50' W 091°59'3 6.8
2017-Sep-13 16:00N 29°49' W 092°03'3 6.8
2017-Sep-13 15:30N 29°48' W 092°07'3 6.6
2017-Sep-13 15:00N 29°47' W 092°10'3 6.8
2017-Sep-13 14:30N 29°48' W 092°14'4 7.2
2017-Sep-13 14:00N 29°49' W 092°18'39 6.3
2017-Sep-13 07:52N 29°56' W 093°01'2 5.9
2017-Sep-13 07:30N 29°56' W 093°04'3 5.8
2017-Sep-13 07:00N 29°56' W 093°07'3 5.3
2017-Sep-13 06:30N 29°57' W 093°10'2 4.8
2017-Sep-13 06:00N 29°59' W 093°12'2 4.9
2017-Sep-13 05:30N 30°00' W 093°14'1 3.0
2017-Sep-13 05:00N 30°02' W 093°14'2 3.1
2017-Sep-13 04:30N 30°03' W 093°16'3 5.3
2017-Sep-13 04:00N 30°05' W 093°17'2 4.6
2017-Sep-13 03:30N 30°06' W 093°20'2 4.1
2017-Sep-13 03:00N 30°08' W 093°19'0 0.0
2017-Sep-13 02:30N 30°08' W 093°19'0 0.0
2017-Sep-13 02:00N 30°08' W 093°19'0 0.0
2017-Sep-13 01:30N 30°08' W 093°19'0 0.0
2017-Sep-13 01:00N 30°08' W 093°19'0 0.0
2017-Sep-13 00:30N 30°08' W 093°19'0 0.0
2017-Sep-13 00:00N 30°08' W 093°19'0 0.0
2017-Sep-12 23:30N 30°08' W 093°19'0 0.0
2017-Sep-12 23:00N 30°08' W 093°19'0 0.0
2017-Sep-12 22:30N 30°08' W 093°19'0 0.1
2017-Sep-12 22:00N 30°08' W 093°19'0 0.0
2017-Sep-12 21:30N 30°08' W 093°19'0 0.0
2017-Sep-12 21:00N 30°08' W 093°19'0 0.0
2017-Sep-12 20:30N 30°08' W 093°19'0 0.0
2017-Sep-12 20:00N 30°08' W 093°19'0 0.0
2017-Sep-12 19:30N 30°08' W 093°19'0 0.0
2017-Sep-12 19:00N 30°08' W 093°19'0 0.0
2017-Sep-12 18:30N 30°08' W 093°19'0 0.0
2017-Sep-12 18:00N 30°08' W 093°19'0 0.0
2017-Sep-12 17:30N 30°08' W 093°19'0 0.0
2017-Sep-12 17:00N 30°08' W 093°19'0 0.0
2017-Sep-12 16:30N 30°08' W 093°19'1 1.4
2017-Sep-12 16:00N 30°07' W 093°20'2 3.6
2017-Sep-12 15:30N 30°06' W 093°19'2 4.7
2017-Sep-12 15:00N 30°05' W 093°17'3 5.6
2017-Sep-12 14:30N 30°02' W 093°15'49 5.0
2017-Sep-12 04:42N 29°51' W 092°20'2 4.9
2017-Sep-12 04:22N 29°50' W 092°18'2 4.9
2017-Sep-12 04:00N 29°49' W 092°17'2 4.9
2017-Sep-12 03:30N 29°48' W 092°14'2 4.4
2017-Sep-12 03:00N 29°47' W 092°12'2 4.8
2017-Sep-12 02:30N 29°47' W 092°09'2 4.8
2017-Sep-12 02:00N 29°48' W 092°07'3 5.1
2017-Sep-12 01:30N 29°48' W 092°04'4 0.1
2017-Sep-10 08:45N 29°50' W 091°60'2 7.0
2017-Sep-10 08:26N 29°49' W 092°02'3 6.7
2017-Sep-10 07:59N 29°48' W 092°05'3 6.6
2017-Sep-10 07:30N 29°47' W 092°09'2 3.6
2017-Sep-10 07:00N 29°47' W 092°11'0 0.1
2017-Sep-10 06:30N 29°47' W 092°11'1 1.4
2017-Sep-10 06:00N 29°47' W 092°12'3 6.6
2017-Sep-10 05:29N 29°48' W 092°15'42 6.6
2017-Sep-09 23:06N 29°56' W 093°03'1 6.0
2017-Sep-09 22:57N 29°56' W 093°04'3 6.2
2017-Sep-09 22:30N 29°56' W 093°07'3 5.6
2017-Sep-09 22:00N 29°57' W 093°10'3 6.2
2017-Sep-09 21:30N 29°59' W 093°13'3 5.8
2017-Sep-09 21:00N 30°02' W 093°14'1 2.1
2017-Sep-09 20:30N 30°02' W 093°15'2 4.3
2017-Sep-09 20:00N 30°04' W 093°16'3 5.5
2017-Sep-09 19:30N 30°06' W 093°19'2 4.2
2017-Sep-09 19:00N 30°08' W 093°20'0 0.6
2017-Sep-09 18:30N 30°08' W 093°19'0 0.0
2017-Sep-09 18:00N 30°08' W 093°19'0 0.0
2017-Sep-09 17:30N 30°08' W 093°19'0 0.0
2017-Sep-09 17:00N 30°08' W 093°19'0 0.0
2017-Sep-09 16:30N 30°08' W 093°19'0 0.0
2017-Sep-09 16:00N 30°08' W 093°19'0 0.0
2017-Sep-09 15:30N 30°08' W 093°19'0 0.0
2017-Sep-09 15:00N 30°08' W 093°19'0 0.0
2017-Sep-09 14:29N 30°08' W 093°19'1 1.2
2017-Sep-09 13:58N 30°08' W 093°20'  

Dump ship's entire track history